Metar Cercanos

 

LEPA - Palma De Mallorc, Spain
Distance from station: ONO 38km
Actualización: 10/12/2018 23:00
Parcialmente nuboso
Parcialmente nuboso
 Viento del N
Viento: N 4 km/h
Temperatura: 12°C
Rocío: 12°C
Humedad: 100%
Barómetro: 1027 hPa
Clouds: Parcialmente nuboso
Visibility: 10 km
Cloud details: Few Clouds 549 m
Parcialmente nuboso 610 m
2018/12/10 22:00 LEPA 102200Z 01002KT 9999 FEW018 SCT020 12/12 Q1027 NOSIG
LEMH - Mahon/Menorca Is, Spain
Distance from station: ENE 105km
Actualización: 10/12/2018 23:00
Despejado
Despejado
 Viento del N
Viento: N 11 km/h
Temperatura: 10°C
Sensación frio: 8°C
Rocío: 8°C
Humedad: 88%
Barómetro: 1026 hPa
Clouds: Despejado
Visibility: 10 km
2018/12/10 22:00 LEMH 102200Z AUTO 36006KT 9999 NCD 10/08 Q1026
 
LEIB - Ibiza/Es Codola, Spain
Distance from station: OSO 165km
Actualización: 10/12/2018 23:00
Parcialmente nuboso
Parcialmente nuboso
 Viento del NO
Viento: NO 6 km/h
Temperatura: 12°C
Rocío: 11°C
Humedad: 94%
Barómetro: 1026 hPa
Clouds: Parcialmente nuboso
Visibility: 10 km
Cloud details: Few Clouds 488 m
Parcialmente nuboso 610 m
2018/12/10 22:00 LEIB 102200Z 32003KT 9999 FEW016 SCT020 12/11 Q1026 NOSIG
LEBL - Barcelona Airpor, Spain
Distance from station: NNO 225km
Actualización: 10/12/2018 23:00
Few Clouds
Few Clouds
 Viento del NO
Viento: NO 13 km/h
Temperatura: 8°C
Sensación frio: 6°C
Rocío: 6°C
Humedad: 87%
Barómetro: 1027 hPa
Clouds: Few Clouds
Visibility: 9 km
Cloud details: Few Clouds 610 m
2018/12/10 22:00 LEBL 102200Z 32007KT 290V360 9000 FEW020 08/06 Q1027 NOSIG
 
LEVC - Valencia (civ/Mi, Spain
Distance from station: NO 188km
Actualización: 10/12/2018 23:00
Despejado
Despejado
 Viento del ONO
Viento: ONO 7 km/h
Temperatura: 8°C
Sensación frio: 7°C
Rocío: 8°C
Humedad: 100%
Barómetro: 1027 hPa
Resumen: Despejado
Visibility: greater than 10 km
2018/12/10 22:00 LEVC 102200Z 29004KT CAVOK 08/08 Q1027 NOSIG
LEGE - Gerona/Costa Bra, Spain
Distance from station: N 276km
Actualización: 10/12/2018 23:00
Few Clouds
Few Clouds
 Viento del calm
Viento: Calma
Temperatura: 5°C
Rocío: 5°C
Humedad: 100%
Barómetro: 1027 hPa
Clouds: Few Clouds
Visibility: 8 km
Cloud details: Few Clouds 975 m
2018/12/10 22:00 LEGE 102200Z 00000KT 8000 FEW032 05/05 Q1027
 
LEAL - Alicante/El Alte, Spain
Distance from station: OSO 344km
Actualización: 10/12/2018 23:00
Despejado
Despejado
 Viento del NO
Viento: NO 7 km/h
Temperatura: 11°C
Rocío: 8°C
Humedad: 82%
Barómetro: 1026 hPa
Resumen: Despejado
Visibility: greater than 10 km
2018/12/10 22:00 LEAL 102200Z 31004KT 280V350 CAVOK 11/08 Q1026 NOSIG
LEAM - Almeria Airport, Spain
Distance from station: SSO 56km
Actualización: 10/12/2018 23:00

 Viento del NNO
Viento: NNO 15 km/h
Temperatura: 13°C
Rocío: 10°C
Humedad: 82%
Barómetro: 1026 hPa
Visibility: 10 km
2018/12/10 22:00 LEAM 102200Z AUTO 34008KT 9999 ////// 13/10 Q1026
 
LEZG - Zaragoza (mil/Ci, Spain
Distance from station: NO 431km
Actualización: 10/12/2018 23:00
Despejado
Despejado
 Viento del O
Viento: O 15 km/h
Temperatura: 8°C
Sensación frio: 5°C
Rocío: 4°C
Humedad: 76%
Barómetro: 1027 hPa
Resumen: Despejado
Visibility: greater than 10 km
2018/12/10 22:00 LEZG 102200Z 26008KT CAVOK 08/04 Q1027
LEMD - Madrid/Barajas, Spain
Distance from station: ONO 234km
Actualización: 10/12/2018 23:00
Despejado
Despejado
 Viento del N
Viento: N 6 km/h
Temperatura: 4°C
Rocío: 3°C
Humedad: 93%
Barómetro: 1026 hPa
Resumen: Despejado
Visibility: greater than 10 km
2018/12/10 22:00 LEMD 102200Z 36003KT CAVOK 04/03 Q1026 NOSIG
 
LEGR - Granada Airport, Spain
Distance from station: OSO 62km
Actualización: 10/12/2018 23:00
Despejado
Despejado
 Viento del calm
Viento: Calma
Temperatura: 7°C
Rocío: 5°C
Humedad: 87%
Barómetro: 1026 hPa
Resumen: Despejado
Visibility: greater than 10 km
2018/12/10 22:00 LEGR 102200Z 00000KT CAVOK 07/05 Q1026
LEMG - Malaga (civ/Mil), Spain
Distance from station: OSO 227km
Actualización: 10/12/2018 23:00
Despejado
Despejado
 Viento del O
Viento: O 9 km/h
Temperatura: 10°C
Sensación frio: 9°C
Rocío: 8°C
Humedad: 88%
Barómetro: 1026 hPa
Resumen: Despejado
Visibility: greater than 10 km
2018/12/10 22:00 LEMG 102200Z 28005KT CAVOK 10/08 Q1026 NOSIG
 
LEZL - Sevilla (civ/Mil, Spain
Distance from station: S 318km
Actualización: 10/12/2018 23:00
Despejado
Despejado
 Viento del ONO
Viento: ONO 2 km/h
Temperatura: 13°C
Rocío: 8°C
Humedad: 72%
Barómetro: 1024 hPa
Resumen: Despejado
Visibility: greater than 10 km
2018/12/10 22:00 LEZL 102200Z 30001KT CAVOK 13/08 Q1024 NOSIG
LEVT - Vitoria, Spain
Distance from station: NO 226km
Actualización: 10/12/2018 23:00
Despejado
Despejado
 Viento del varies
Viento: varies 4 km/h
Temperatura: 2°C
Rocío: 1°C
Humedad: 93%
Barómetro: 1028 hPa
Resumen: Despejado
Visibility: greater than 10 km
2018/12/10 22:00 LEVT 102200Z VRB02KT CAVOK 02/01 Q1028
 
LEBB - Bilbao/Sondica, Spain
Distance from station: NNO 235km
Actualización: 10/12/2018 23:00
Few Clouds
Few Clouds
 Viento del SE
Viento: SE 11 km/h
Temperatura: 7°C
Sensación frio: 5°C
Rocío: 6°C
Humedad: 93%
Barómetro: 1028 hPa
Clouds: Few Clouds
Visibility: 10 km
Cloud details: Few Clouds 1219 m
2018/12/10 22:00 LEBB 102200Z 13006KT 9999 FEW040 07/06 Q1028 NOSIG
LESO - San Sebastian/Fu, Spain
Distance from station: N 231km
Actualización: 10/12/2018 23:00
Despejado
Despejado
 Viento del calm
Viento: Calma
Temperatura: 8°C
Rocío: 7°C
Humedad: 93%
Barómetro: 1028 hPa
Clouds: Despejado
Visibility: 7 km
2018/12/10 22:00 LESO 102200Z AUTO 00000KT 7000 NCD 08/07 Q1028
 
LEVD - Valladolid(Mil/C, Spain
Distance from station: ONO 239km
Actualización: 10/12/2018 21:30
NOT Current
Despejado
Despejado
 Viento del NE
Viento: NE 4 km/h
Temperatura: 3°C
Rocío: 2°C
Humedad: 93%
Barómetro: 1027 hPa
Resumen: Despejado
Visibility: greater than 10 km
2018/12/10 20:30 LEVD 102030Z 04002KT CAVOK 03/02 Q1027
LESA - Salamanca (civ/M, Spain
Distance from station: ONO 349km
Actualización: 10/12/2018 23:00
Despejado
Despejado
 Viento del calm
Viento: Calma
Temperatura: 1°C
Rocío: 1°C
Humedad: 100%
Barómetro: 1027 hPa
Clouds: Despejado
Visibility: 7 km
2018/12/10 22:00 LESA 102200Z AUTO 00000KT 7000 R21/1400U NCD 01/01 Q1027
 
LEXJ - Santander/Paraya, Spain
Distance from station: NNO 247km
Actualización: 10/12/2018 23:00
Despejado
Despejado
 Viento del varies
Viento: varies 4 km/h
Temperatura: 8°C
Rocío: 7°C
Humedad: 93%
Barómetro: 1027 hPa
Resumen: Despejado
Visibility: greater than 10 km
2018/12/10 22:00 LEXJ 102200Z VRB02KT CAVOK 08/07 Q1027
LEAS - Asturias/Aviles, Spain
Distance from station: NO 214km
Actualización: 10/12/2018 23:00
Despejado
Despejado
 Viento del SSE
Viento: SSE 7 km/h
Temperatura: 8°C
Sensación frio: 7°C
Rocío: 6°C
Humedad: 87%
Barómetro: 1025 hPa
Resumen: Despejado
Visibility: greater than 10 km
2018/12/10 22:00 LEAS 102200Z 15004KT CAVOK 08/06 Q1025 NOSIG
 
LECO - La Coruna/Alvedr, Spain
Distance from station: ONO 222km
Actualización: 10/12/2018 23:00
Despejado
Despejado
 Viento del S
Viento: S 13 km/h
Temperatura: 8°C
Sensación frio: 6°C
Rocío: 6°C
Humedad: 87%
Barómetro: 1023 hPa
Resumen: Despejado
Visibility: greater than 10 km
2018/12/10 22:00 LECO 102200Z 17007KT CAVOK 08/06 Q1023 NOSIG
LEVX - Vigo/Peinador, Spain
Distance from station: O 214km
Actualización: 10/12/2018 23:00
Despejado
Despejado
 Viento del OSO
Viento: OSO 11 km/h
Temperatura: 11°C
Rocío: 7°C
Humedad: 77%
Barómetro: 1023 hPa
Resumen: Despejado
Visibility: greater than 10 km
2018/12/10 22:00 LEVX 102200Z 25006KT 210V280 CAVOK 11/07 Q1023 NOSIG